createdAt,value
2022-11-10T00:00:41.769Z,0
2022-11-10T00:06:17.708Z,0
2022-11-10T00:11:39.323Z,0
2022-11-10T00:17:19.787Z,0
2022-11-10T00:22:55.980Z,0
2022-11-10T00:28:29.814Z,0
2022-11-10T00:33:39.371Z,0
2022-11-10T00:39:15.836Z,0
2022-11-10T00:44:59.487Z,0
2022-11-10T00:50:34.440Z,0
2022-11-10T00:56:11.150Z,0
2022-11-10T01:01:26.636Z,0
2022-11-10T01:07:17.398Z,0
2022-11-10T01:12:38.291Z,0
2022-11-10T01:18:09.527Z,0
2022-11-10T01:23:51.601Z,0
2022-11-10T01:29:02.697Z,0
2022-11-10T01:34:58.732Z,0
2022-11-10T01:40:31.825Z,0
2022-11-10T01:46:04.625Z,0
2022-11-10T01:51:25.414Z,0
2022-11-10T01:56:52.815Z,0
2022-11-10T02:02:41.896Z,0
2022-11-10T02:07:53.433Z,0
2022-11-10T02:13:31.082Z,0
2022-11-10T02:19:09.759Z,0
2022-11-10T02:24:40.576Z,0
2022-11-10T02:30:27.596Z,0
2022-11-10T02:35:33.990Z,0
2022-11-10T02:41:25.349Z,0
2022-11-10T02:46:45.279Z,0
2022-11-10T02:52:17.487Z,0
2022-11-10T02:58:05.603Z,0
2022-11-10T03:03:29.413Z,0
2022-11-10T03:09:10.847Z,0
2022-11-10T03:14:25.271Z,0
2022-11-10T03:20:15.099Z,0
2022-11-10T03:25:43.297Z,0
2022-11-10T03:31:27.275Z,0
2022-11-10T03:37:00.463Z,0
2022-11-10T03:42:23.598Z,0
2022-11-10T03:47:39.196Z,0
2022-11-10T03:53:34.694Z,0
2022-11-10T03:59:04.024Z,0
2022-11-10T04:04:36.032Z,0
2022-11-10T04:10:15.116Z,3.6
2022-11-10T04:15:28.756Z,3.6
2022-11-10T04:21:01.955Z,4.8
2022-11-10T04:26:51.932Z,0
2022-11-10T04:32:30.024Z,0
2022-11-10T04:38:01.573Z,0
2022-11-10T04:43:27.561Z,3.6
2022-11-10T04:48:52.810Z,3.6
2022-11-10T04:55:32.244Z,5.9
2022-11-10T04:59:53.756Z,3.6
2022-11-10T05:05:35.875Z,3.6
2022-11-10T05:11:06.667Z,2.4
2022-11-10T05:16:32.530Z,0
2022-11-10T05:22:22.031Z,3.6
2022-11-10T05:27:38.311Z,0
2022-11-10T05:33:30.147Z,0
2022-11-10T05:38:43.799Z,0
2022-11-10T05:44:11.353Z,0
2022-11-10T05:50:01.580Z,0
2022-11-10T05:55:21.579Z,0
2022-11-10T06:00:47.817Z,0
2022-11-10T06:06:37.620Z,0
2022-11-10T06:11:53.801Z,2.4
2022-11-10T06:17:36.277Z,2.4
2022-11-10T06:23:00.614Z,0
2022-11-10T06:28:51.306Z,2.4
2022-11-10T06:34:29.092Z,0
2022-11-10T06:39:41.924Z,2.4
2022-11-10T06:45:33.988Z,2.4
2022-11-10T06:50:56.151Z,3.6
2022-11-10T06:56:11.745Z,4.8
2022-11-10T07:01:48.260Z,2.4
2022-11-10T07:07:21.608Z,0
2022-11-10T07:13:09.939Z,0
2022-11-10T07:18:47.942Z,0
2022-11-10T07:24:16.212Z,0
2022-11-10T07:29:53.456Z,0
2022-11-10T07:35:06.730Z,0
2022-11-10T07:40:42.288Z,0
2022-11-10T07:46:32.753Z,0
2022-11-10T07:51:53.829Z,0
2022-11-10T07:57:37.074Z,0
2022-11-10T08:02:58.103Z,0
2022-11-10T08:08:31.686Z,0
2022-11-10T08:14:14.195Z,4.8
2022-11-10T08:19:31.176Z,5.9
2022-11-10T08:24:57.180Z,4.8
2022-11-10T08:30:46.592Z,2.4
2022-11-10T08:36:04.314Z,2.4
2022-11-10T08:41:34.695Z,3.6
2022-11-10T08:47:26.723Z,4.8
2022-11-10T08:52:54.053Z,3.6
2022-11-10T08:58:20.453Z,3.6
2022-11-10T09:03:47.572Z,2.4
2022-11-10T09:09:23.647Z,2.4
2022-11-10T09:15:06.361Z,2.4
2022-11-10T09:20:38.356Z,3.6
2022-11-10T09:26:14.671Z,3.6
2022-11-10T09:31:41.528Z,2.4
2022-11-10T09:37:24.990Z,4.8
2022-11-10T09:42:46.073Z,4.8
2022-11-10T09:48:26.564Z,5.9
2022-11-10T09:53:51.496Z,5.9
2022-11-10T09:59:48.530Z,5.9
2022-11-10T10:05:11.644Z,5.9
2022-11-10T10:10:48.310Z,4.8
2022-11-10T10:16:21.568Z,8.4
2022-11-10T10:21:40.951Z,5.9
2022-11-10T10:27:14.272Z,5.9
2022-11-10T10:32:48.797Z,5.9
2022-11-10T10:38:34.574Z,8.4
2022-11-10T10:44:02.253Z,8.4
2022-11-10T10:49:33.616Z,7.2
2022-11-10T10:55:15.862Z,5.9
2022-11-10T11:00:46.233Z,7.2
2022-11-10T11:06:05.371Z,5.9
2022-11-10T11:11:44.948Z,7.2
2022-11-10T11:17:13.910Z,7.2
2022-11-10T11:22:50.975Z,7.2
2022-11-10T11:28:40.758Z,7.2
2022-11-10T11:34:16.091Z,5.9
2022-11-10T11:39:29.864Z,8.4
2022-11-10T11:45:26.203Z,8.4
2022-11-10T11:50:33.990Z,7.2
2022-11-10T11:56:15.113Z,8.4
2022-11-10T12:02:09.385Z,9.6
2022-11-10T12:07:24.294Z,8.4
2022-11-10T12:12:54.464Z,5.9
2022-11-10T12:18:24.021Z,8.4
2022-11-10T12:23:58.556Z,8.4
2022-11-10T12:29:49.170Z,8.4
2022-11-10T12:35:20.132Z,7.2
2022-11-10T12:40:41.923Z,7.2
2022-11-10T12:46:13.542Z,8.4
2022-11-10T12:51:51.215Z,7.2
2022-11-10T12:57:25.194Z,7.2
2022-11-10T13:03:09.526Z,8.4
2022-11-10T13:08:37.809Z,9.6
2022-11-10T13:14:13.728Z,8.4
2022-11-10T13:20:20.691Z,8.4
2022-11-10T13:25:09.571Z,8.4
2022-11-10T13:30:54.746Z,9.6
2022-11-10T13:36:48.277Z,8.4
2022-11-10T13:42:15.830Z,8.4
2022-11-10T13:47:38.495Z,9.6
2022-11-10T13:53:19.240Z,9.6
2022-11-10T13:59:10.435Z,10.7
2022-11-10T14:04:18.353Z,9.6
2022-11-10T14:10:11.124Z,9.6
2022-11-10T14:15:32.205Z,8.4
2022-11-10T14:21:28.303Z,11.9
2022-11-10T14:26:37.789Z,10.7
2022-11-10T14:32:08.352Z,9.6
2022-11-10T14:38:02.479Z,8.4
2022-11-10T14:43:44.185Z,8.4
2022-11-10T14:48:55.629Z,8.4
2022-11-10T14:54:48.240Z,9.6
2022-11-10T15:00:21.371Z,8.4
2022-11-10T15:05:40.314Z,7.2
2022-11-10T15:11:11.212Z,7.2
2022-11-10T15:16:43.490Z,5.9
2022-11-10T15:22:32.161Z,4.8
2022-11-10T15:28:15.621Z,4.8
2022-11-10T15:33:41.767Z,3.6
2022-11-10T15:39:15.602Z,2.4
2022-11-10T15:44:35.579Z,0
2022-11-10T15:50:26.011Z,0
2022-11-10T15:55:38.725Z,0
2022-11-10T16:01:25.837Z,2.4
2022-11-10T16:06:46.724Z,0
2022-11-10T16:12:20.883Z,0
2022-11-10T16:18:02.995Z,2.4
2022-11-10T16:23:29.363Z,2.4
2022-11-10T16:29:18.664Z,0
2022-11-10T16:34:35.762Z,0
2022-11-10T16:40:08.268Z,2.4
2022-11-10T16:45:44.373Z,2.4
2022-11-10T16:51:29.225Z,0
2022-11-10T16:56:50.294Z,3.6
2022-11-10T17:02:21.987Z,4.8
2022-11-10T17:07:47.849Z,2.4
2022-11-10T17:13:17.718Z,0
2022-11-10T17:18:55.795Z,0
2022-11-10T17:24:41.573Z,0
2022-11-10T17:30:08.804Z,0
2022-11-10T17:35:52.523Z,0
2022-11-10T17:41:20.842Z,0
2022-11-10T17:46:56.908Z,0
2022-11-10T17:52:00.685Z,0
2022-11-10T17:58:01.534Z,3.6
2022-11-10T18:03:25.676Z,2.4
2022-11-10T18:09:01.018Z,4.8
2022-11-10T18:20:05.732Z,5.9
2022-11-10T18:25:20.702Z,4.8
2022-11-10T18:30:55.672Z,5.9
2022-11-10T18:36:37.094Z,0
2022-11-10T18:42:16.852Z,0
2022-11-10T18:47:38.877Z,0
2022-11-10T18:53:23.020Z,0
2022-11-10T18:58:45.651Z,0
2022-11-10T19:04:33.000Z,0
2022-11-10T19:09:40.163Z,0
2022-11-10T19:15:18.023Z,0
2022-11-10T19:20:49.765Z,3.6
2022-11-10T19:26:29.376Z,0
2022-11-10T19:32:09.907Z,0
2022-11-10T19:37:41.398Z,0
2022-11-10T19:43:17.824Z,0
2022-11-10T19:48:36.671Z,0
2022-11-10T19:54:21.912Z,0
2022-11-10T19:59:36.291Z,0
2022-11-10T20:05:08.540Z,0
2022-11-10T20:10:49.768Z,0
2022-11-10T20:16:36.651Z,0
2022-11-10T20:21:42.862Z,0
2022-11-10T20:27:43.368Z,0
2022-11-10T20:32:51.058Z,0
2022-11-10T20:38:44.927Z,0
2022-11-10T20:44:13.925Z,0
2022-11-10T20:49:36.242Z,0
2022-11-10T20:55:02.539Z,0
2022-11-10T21:00:56.098Z,0
2022-11-10T21:06:22.373Z,0
2022-11-10T21:11:51.352Z,0
2022-11-10T21:17:30.550Z,0
2022-11-10T21:22:40.519Z,0
2022-11-10T21:28:22.134Z,0
2022-11-10T21:33:47.960Z,0
2022-11-10T21:39:20.909Z,0
2022-11-10T21:44:49.115Z,0
2022-11-10T21:50:42.739Z,0
2022-11-10T21:56:07.478Z,0
2022-11-10T22:01:35.992Z,0
2022-11-10T22:07:02.651Z,0
2022-11-10T22:12:41.948Z,0
2022-11-10T22:18:26.206Z,0
2022-11-10T22:23:51.340Z,0
2022-11-10T22:29:27.334Z,0
2022-11-10T22:34:49.371Z,2.4
2022-11-10T22:40:34.154Z,0
2022-11-10T22:46:02.581Z,2.4
2022-11-10T22:51:21.012Z,2.4
2022-11-10T22:56:57.999Z,0
2022-11-10T23:02:42.830Z,0
2022-11-10T23:08:25.952Z,0
2022-11-10T23:13:53.246Z,0
2022-11-10T23:24:57.274Z,0
2022-11-10T23:30:11.034Z,0
2022-11-10T23:35:41.474Z,0
2022-11-10T23:41:14.852Z,0
2022-11-10T23:47:08.416Z,0
2022-11-10T23:52:40.746Z,0
2022-11-10T23:57:54.421Z,0
